Time;durP1;ratioP1;P1;durP2;ratioP2;P2;SDS_P1;SDS_P2;PMS_P1;PMS_P2;Temp;Humidity;BMP_temperature;BMP_pressure;BME280_temperature;BME280_humidity;BME280_pressure;Samples;Min_cycle;Max_cycle;Signal;HPM_P1;HPM_P2
2022/05/18 00:02:07;;;;;;;6.03;2.50;;;20.50;96.70;;;;;;5045071;28;20044;-83
2022/05/18 00:04:34;;;;;;;5.85;2.47;;;20.70;96.70;;;;;;5063993;28;20058;-83
2022/05/18 00:07:04;;;;;;;5.30;2.30;;;20.60;96.70;;;;;;5058061;28;20040;-83
2022/05/18 00:09:31;;;;;;;4.70;2.63;;;20.70;96.70;;;;;;5060698;28;20076;-83
2022/05/18 00:11:59;;;;;;;6.28;2.58;;;20.70;96.70;;;;;;5059741;28;20062;-84
2022/05/18 00:14:28;;;;;;;6.03;2.42;;;20.80;96.70;;;;;;5049349;28;20098;-83
2022/05/18 00:16:59;;;;;;;7.00;2.65;;;20.60;96.70;;;;;;5043012;28;20090;-83
2022/05/18 00:19:28;;;;;;;5.95;2.60;;;20.60;96.70;;;;;;5044689;28;20547;-83
2022/05/18 00:21:55;;;;;;;4.72;2.47;;;20.50;96.70;;;;;;5060839;28;20068;-83
2022/05/18 00:24:23;;;;;;;3.90;2.72;;;20.40;96.70;;;;;;5042637;28;20044;-83
2022/05/18 00:26:51;;;;;;;6.00;2.70;;;20.40;96.70;;;;;;5064631;28;20131;-83
2022/05/18 00:29:19;;;;;;;5.75;3.10;;;20.30;96.70;;;;;;5063437;28;20049;-82
2022/05/18 00:31:47;;;;;;;4.30;2.75;;;20.30;96.70;;;;;;5066836;28;20477;-83
2022/05/18 00:34:16;;;;;;;4.72;3.28;;;20.40;96.70;;;;;;5055772;28;20055;-83
2022/05/18 00:36:44;;;;;;;6.75;2.75;;;20.30;96.70;;;;;;5051701;28;20495;-83
2022/05/18 00:39:12;;;;;;;4.82;2.78;;;20.20;96.70;;;;;;5066632;28;20574;-82
2022/05/18 00:41:41;;;;;;;5.75;2.47;;;20.30;96.70;;;;;;5067665;28;20111;-83
2022/05/18 00:44:09;;;;;;;5.78;2.75;;;20.40;96.70;;;;;;5069596;28;20048;-83
2022/05/18 00:46:37;;;;;;;4.50;2.33;;;20.40;96.70;;;;;;5061564;28;20060;-83
2022/05/18 00:49:07;;;;;;;5.93;2.88;;;20.30;96.70;;;;;;5063854;28;20041;-83
2022/05/18 00:51:42;;;;;;;3.33;2.53;;;20.20;96.70;;;;;;5063054;28;20143;-83
2022/05/18 00:54:13;;;;;;;6.70;3.38;;;20.10;96.70;;;;;;5048459;28;20055;-84
2022/05/18 00:56:46;;;;;;;5.05;2.42;;;20.10;96.70;;;;;;5061308;28;20048;-83
2022/05/18 00:59:19;;;;;;;5.45;2.55;;;20.10;96.70;;;;;;5067091;28;20044;-83
2022/05/18 01:01:49;;;;;;;2.60;2.38;;;20.10;96.70;;;;;;5061584;28;20048;-83
2022/05/18 01:04:17;;;;;;;5.25;2.67;;;20.10;96.70;;;;;;5066067;28;20862;-83
2022/05/18 01:06:54;;;;;;;5.07;2.90;;;20.10;96.70;;;;;;5060318;28;20056;-84
2022/05/18 01:09:25;;;;;;;4.15;2.60;;;20.10;96.70;;;;;;5068392;28;20677;-83
2022/05/18 01:11:53;;;;;;;6.55;2.92;;;20.00;96.70;;;;;;5059803;28;20043;-83
2022/05/18 01:14:24;;;;;;;4.78;2.95;;;20.00;96.70;;;;;;5063958;28;20064;-84
2022/05/18 01:16:53;;;;;;;5.00;2.63;;;20.00;96.70;;;;;;5061496;28;20090;-83
2022/05/18 01:19:33;;;;;;;7.70;2.65;;;20.00;96.70;;;;;;5064976;28;20052;-83
2022/05/18 01:22:09;;;;;;;5.00;2.33;;;20.00;96.70;;;;;;5061325;28;20058;-83
2022/05/18 01:24:47;;;;;;;4.47;2.30;;;19.90;96.70;;;;;;5061859;28;20048;-83
2022/05/18 01:27:16;;;;;;;7.65;3.35;;;19.90;96.70;;;;;;5067754;28;20670;-83
2022/05/18 01:29:44;;;;;;;4.90;2.67;;;19.90;96.70;;;;;;5061765;28;20123;-83
2022/05/18 01:32:15;;;;;;;9.38;3.03;;;19.90;96.70;;;;;;5063468;28;20080;-83
2022/05/18 01:34:43;;;;;;;7.88;3.20;;;19.80;96.70;;;;;;5059204;28;20059;-83
2022/05/18 01:37:12;;;;;;;6.25;2.90;;;19.90;96.70;;;;;;5061014;28;20037;-83
2022/05/18 01:39:51;;;;;;;6.70;3.00;;;19.90;96.70;;;;;;5064824;28;20044;-83
2022/05/18 01:42:27;;;;;;;6.15;2.55;;;19.90;96.70;;;;;;5062875;28;20109;-83
2022/05/18 01:44:55;;;;;;;7.25;3.45;;;19.90;96.70;;;;;;5062267;28;20405;-83
2022/05/18 01:47:23;;;;;;;6.70;2.88;;;19.90;96.70;;;;;;5059392;28;20564;-84
2022/05/18 01:49:54;;;;;;;6.22;2.25;;;19.90;96.70;;;;;;5060575;28;20048;-83
2022/05/18 01:52:22;;;;;;;4.40;2.30;;;19.90;96.70;;;;;;5050282;28;20059;-83
2022/05/18 01:54:49;;;;;;;4.55;2.97;;;19.70;96.70;;;;;;5048923;28;20550;-83
2022/05/18 01:57:17;;;;;;;4.53;3.17;;;19.70;96.70;;;;;;5047000;28;20068;-83
2022/05/18 01:59:46;;;;;;;8.55;2.83;;;19.80;96.70;;;;;;5065813;28;20048;-83
2022/05/18 02:02:14;;;;;;;6.82;3.15;;;19.80;96.70;;;;;;5066346;28;20047;-83
2022/05/18 02:04:42;;;;;;;7.20;2.75;;;19.60;96.70;;;;;;5068181;28;20049;-83
2022/05/18 02:07:11;;;;;;;5.95;2.67;;;19.50;96.70;;;;;;5041090;28;20049;-84
2022/05/18 02:09:39;;;;;;;5.13;2.90;;;19.50;96.70;;;;;;5047055;28;20498;-83
2022/05/18 02:12:09;;;;;;;6.13;3.33;;;19.50;96.70;;;;;;5066514;28;20519;-83
2022/05/18 02:14:37;;;;;;;8.25;2.67;;;19.60;96.70;;;;;;5060851;28;20051;-83
2022/05/18 02:17:06;;;;;;;6.57;3.05;;;19.60;96.70;;;;;;5044840;28;20046;-83
2022/05/18 02:19:34;;;;;;;5.78;2.88;;;19.50;96.70;;;;;;5031671;28;20099;-83
2022/05/18 02:22:02;;;;;;;5.95;2.90;;;19.60;96.70;;;;;;5062213;28;20628;-83
2022/05/18 02:24:30;;;;;;;6.80;2.80;;;19.60;96.70;;;;;;5062994;28;20079;-83
2022/05/18 02:26:58;;;;;;;4.80;2.50;;;19.50;96.70;;;;;;5060002;28;20044;-83
2022/05/18 02:29:26;;;;;;;5.43;2.42;;;19.50;96.70;;;;;;5058583;28;20044;-83
2022/05/18 02:32:09;;;;;;;4.28;2.50;;;19.50;96.70;;;;;;5042089;28;20098;-83
2022/05/18 02:34:39;;;;;;;5.35;2.47;;;19.40;96.70;;;;;;5062419;28;20044;-83
2022/05/18 02:46:03;;;;;;;5.70;2.47;;;19.40;96.70;;;;;;5055505;28;20047;-83
2022/05/18 02:48:33;;;;;;;5.60;2.75;;;19.30;96.70;;;;;;5061582;28;20044;-83
2022/05/18 02:51:01;;;;;;;6.68;3.20;;;19.30;96.70;;;;;;5057491;28;20131;-83
2022/05/18 02:53:28;;;;;;;3.55;2.60;;;19.30;96.70;;;;;;5067626;28;20051;-83
2022/05/18 02:56:08;;;;;;;6.43;3.17;;;19.20;96.70;;;;;;5061720;28;20048;-83
2022/05/18 02:58:38;;;;;;;6.32;3.15;;;19.20;96.70;;;;;;5046167;28;20044;-83
2022/05/18 03:01:07;;;;;;;4.70;2.90;;;19.10;96.70;;;;;;5063467;28;20044;-83
2022/05/18 03:03:37;;;;;;;5.47;2.70;;;19.00;96.70;;;;;;5046601;28;20049;-83
2022/05/18 03:06:07;;;;;;;8.10;3.10;;;18.90;96.70;;;;;;5052885;28;20045;-83
2022/05/18 03:08:37;;;;;;;6.78;3.00;;;18.90;96.70;;;;;;5065889;28;20494;-82
2022/05/18 03:11:05;;;;;;;6.18;2.90;;;19.00;96.70;;;;;;5062349;28;20051;-83
2022/05/18 03:13:34;;;;;;;4.38;2.65;;;19.00;96.70;;;;;;5048296;28;20040;-83
2022/05/18 03:16:02;;;;;;;6.47;3.05;;;18.90;96.70;;;;;;5047497;28;20503;-83
2022/05/18 03:18:30;;;;;;;6.22;2.72;;;18.80;96.70;;;;;;5065732;28;20043;-83
2022/05/18 03:23:47;;;;;;;4.25;2.50;;;18.70;96.70;;;;;;5059831;28;20044;-83
2022/05/18 03:26:17;;;;;;;7.03;2.58;;;18.60;96.70;;;;;;5061311;28;20036;-83
2022/05/18 03:28:47;;;;;;;5.80;2.67;;;18.60;96.70;;;;;;5057206;28;20047;-83
2022/05/18 03:31:16;;;;;;;5.97;2.83;;;18.60;96.70;;;;;;5066207;28;20040;-83
2022/05/18 03:33:45;;;;;;;5.40;2.50;;;18.70;96.70;;;;;;5041184;28;20049;-82
2022/05/18 03:36:16;;;;;;;5.95;2.75;;;18.70;96.70;;;;;;5036847;28;20637;-83
2022/05/18 03:38:45;;;;;;;5.97;2.53;;;18.70;96.70;;;;;;5058193;28;20048;-83
2022/05/18 03:41:13;;;;;;;6.95;3.15;;;18.70;96.70;;;;;;5066081;28;20045;-83
2022/05/18 03:43:41;;;;;;;4.43;2.63;;;18.60;96.70;;;;;;5057675;28;20088;-83
2022/05/18 03:46:10;;;;;;;7.40;2.95;;;18.70;96.70;;;;;;5059387;28;20033;-83
2022/05/18 03:48:39;;;;;;;5.05;2.75;;;18.70;96.70;;;;;;5062629;28;20056;-82
2022/05/18 03:51:09;;;;;;;4.45;2.33;;;18.60;96.70;;;;;;5065127;28;20040;-83
2022/05/18 03:53:38;;;;;;;5.85;2.60;;;18.70;96.70;;;;;;5046608;28;20052;-83
2022/05/18 03:56:08;;;;;;;7.35;2.58;;;18.70;96.70;;;;;;5044853;28;20156;-83
2022/05/18 03:58:36;;;;;;;5.60;2.60;;;18.60;96.70;;;;;;5059516;28;20040;-83
2022/05/18 04:01:08;;;;;;;4.78;3.00;;;18.50;96.70;;;;;;5062724;28;20063;-83
2022/05/18 04:03:37;;;;;;;5.80;2.50;;;18.60;96.70;;;;;;5064823;28;20157;-83
2022/05/18 04:06:06;;;;;;;5.72;2.53;;;18.50;96.70;;;;;;5065089;28;20133;-83
2022/05/18 04:08:34;;;;;;;8.60;2.80;;;18.50;96.70;;;;;;5064706;28;20048;-82
2022/05/18 04:11:03;;;;;;;4.90;2.53;;;18.40;96.70;;;;;;5063313;28;20486;-83
2022/05/18 04:13:32;;;;;;;4.75;2.42;;;18.40;96.70;;;;;;5047920;28;20098;-83
2022/05/18 04:16:00;;;;;;;7.32;3.40;;;18.50;96.70;;;;;;5063409;28;20044;-83
2022/05/18 04:18:28;;;;;;;3.45;2.08;;;18.50;96.70;;;;;;5065666;28;20064;-83
2022/05/18 04:20:56;;;;;;;6.10;2.63;;;18.50;96.70;;;;;;5057199;28;20044;-83
2022/05/18 04:23:24;;;;;;;5.20;2.58;;;18.40;96.70;;;;;;5041095;28;20075;-83
2022/05/18 04:25:53;;;;;;;4.70;2.30;;;18.50;96.70;;;;;;5064378;28;20498;-83
2022/05/18 04:28:22;;;;;;;3.55;2.50;;;18.50;96.70;;;;;;5046935;28;20048;-83
2022/05/18 04:30:50;;;;;;;6.30;2.50;;;18.50;96.70;;;;;;5060741;28;20125;-82
2022/05/18 04:33:20;;;;;;;7.10;2.45;;;18.50;96.70;;;;;;5059636;28;20431;-83
2022/05/18 04:35:50;;;;;;;5.82;2.70;;;18.50;96.70;;;;;;5042729;28;20067;-83
2022/05/18 04:38:20;;;;;;;3.58;2.60;;;18.50;96.70;;;;;;5045521;28;20411;-83
2022/05/18 04:40:55;;;;;;;6.47;2.75;;;18.50;96.70;;;;;;5064054;28;20036;-83
2022/05/18 04:43:25;;;;;;;4.60;2.45;;;18.60;96.70;;;;;;5048289;28;20053;-83
2022/05/18 04:45:55;;;;;;;3.88;2.42;;;18.60;96.70;;;;;;5063041;28;20510;-83
2022/05/18 04:48:24;;;;;;;4.88;2.60;;;18.60;96.70;;;;;;5048079;28;20060;-83
2022/05/18 04:50:53;;;;;;;9.02;3.60;;;18.70;96.70;;;;;;5061774;28;20074;-82
2022/05/18 04:53:21;;;;;;;6.43;3.03;;;18.60;96.70;;;;;;5055088;28;20045;-83
2022/05/18 04:55:49;;;;;;;6.05;2.63;;;18.60;96.70;;;;;;5048063;28;20049;-83
2022/05/18 04:58:18;;;;;;;5.90;3.30;;;18.60;96.70;;;;;;5058570;28;20054;-83
2022/05/18 05:00:52;;;;;;;5.40;3.03;;;18.50;96.70;;;;;;5056318;28;20040;-83
2022/05/18 05:03:20;;;;;;;6.90;3.22;;;18.50;96.70;;;;;;5062806;28;20083;-83
2022/05/18 05:05:51;;;;;;;6.47;2.80;;;18.40;96.70;;;;;;5061829;28;20045;-82
2022/05/18 05:08:27;;;;;;;7.03;3.22;;;18.40;96.70;;;;;;5056798;28;20123;-83
2022/05/18 05:10:57;;;;;;;5.85;2.90;;;18.40;96.70;;;;;;5039150;28;20909;-83
2022/05/18 05:13:25;;;;;;;5.47;3.33;;;18.50;96.70;;;;;;5045231;28;20036;-83
2022/05/18 05:16:00;;;;;;;6.53;3.15;;;18.60;96.70;;;;;;5054313;28;20041;-83
2022/05/18 05:18:29;;;;;;;4.38;2.97;;;18.60;96.70;;;;;;5059403;28;20052;-83
2022/05/18 05:20:57;;;;;;;5.93;3.33;;;18.50;96.70;;;;;;5041162;28;20486;-83
2022/05/18 05:23:26;;;;;;;8.57;3.47;;;18.50;96.70;;;;;;5047494;28;20574;-82
2022/05/18 05:25:55;;;;;;;5.50;3.00;;;18.50;96.70;;;;;;5051224;28;20113;-83
2022/05/18 05:28:24;;;;;;;6.40;3.42;;;18.60;96.70;;;;;;5052263;28;20056;-82
2022/05/18 05:30:53;;;;;;;6.82;3.35;;;18.80;96.70;;;;;;5066990;28;20048;-83
2022/05/18 05:33:23;;;;;;;12.40;3.53;;;18.80;96.70;;;;;;5052426;28;20055;-80
2022/05/18 05:35:58;;;;;;;8.90;3.45;;;18.80;96.70;;;;;;5068637;28;20040;-82
2022/05/18 05:38:33;;;;;;;6.55;3.40;;;18.80;96.70;;;;;;5045986;28;20632;-83
2022/05/18 05:41:01;;;;;;;6.55;3.55;;;19.00;96.70;;;;;;5059109;28;20127;-83
2022/05/18 05:43:33;;;;;;;6.93;3.00;;;18.90;96.70;;;;;;5062771;28;20044;-82
2022/05/18 05:46:03;;;;;;;7.47;3.20;;;19.00;96.70;;;;;;5062666;28;20139;-83
2022/05/18 05:48:34;;;;;;;9.63;3.60;;;19.10;96.70;;;;;;5023365;28;20059;-82
2022/05/18 05:51:03;;;;;;;10.70;3.63;;;19.10;96.70;;;;;;5028345;28;20087;-83
2022/05/18 05:53:32;;;;;;;6.35;3.90;;;19.10;96.70;;;;;;5021987;28;20143;-84
2022/05/18 05:56:01;;;;;;;4.95;3.35;;;19.20;96.70;;;;;;5023591;28;20087;-82
2022/05/18 05:58:33;;;;;;;8.93;4.03;;;19.10;96.70;;;;;;5019219;28;20056;-82
2022/05/18 06:01:02;;;;;;;8.68;3.45;;;19.20;96.70;;;;;;5023286;28;20098;-83
2022/05/18 06:03:33;;;;;;;7.63;3.45;;;19.40;96.70;;;;;;4997929;28;20042;-83
2022/05/18 06:06:02;;;;;;;9.73;4.10;;;19.40;96.70;;;;;;5025997;28;20045;-84
2022/05/18 06:08:31;;;;;;;7.32;3.60;;;19.40;96.70;;;;;;5022673;28;20743;-83
2022/05/18 06:11:00;;;;;;;9.73;3.90;;;19.30;96.70;;;;;;5022623;28;20049;-81
2022/05/18 06:13:29;;;;;;;8.10;3.78;;;19.40;96.70;;;;;;5024709;28;20057;-83
2022/05/18 06:15:57;;;;;;;7.90;4.07;;;19.30;96.70;;;;;;5024565;28;20049;-82
2022/05/18 06:18:26;;;;;;;7.35;3.50;;;19.30;96.70;;;;;;5023142;28;20140;-81
2022/05/18 06:20:56;;;;;;;8.23;3.80;;;19.40;96.70;;;;;;5019860;28;20037;-79
2022/05/18 06:23:25;;;;;;;5.32;3.53;;;19.50;96.70;;;;;;5020479;28;20045;-80
2022/05/18 06:25:57;;;;;;;10.45;4.63;;;19.60;96.70;;;;;;5004069;28;20415;-80
2022/05/18 06:28:26;;;;;;;8.15;4.32;;;19.70;96.70;;;;;;5014347;28;20160;-79
2022/05/18 06:30:54;;;;;;;11.52;4.32;;;19.70;96.70;;;;;;5018093;28;20033;-80
2022/05/18 06:33:23;;;;;;;6.35;3.95;;;19.70;96.70;;;;;;5035713;28;20053;-78
2022/05/18 06:35:51;;;;;;;7.22;4.55;;;19.80;96.70;;;;;;5020943;28;20146;-80
2022/05/18 06:38:23;;;;;;;10.60;4.35;;;19.90;96.70;;;;;;5035474;28;20076;-82
2022/05/18 06:43:39;;;;;;;9.20;4.10;;;19.90;96.70;;;;;;5017097;28;20511;-85
2022/05/18 06:46:07;;;;;;;7.38;4.10;;;19.90;96.70;;;;;;5026348;28;20049;-79
2022/05/18 06:48:35;;;;;;;7.28;4.20;;;20.10;96.70;;;;;;5058577;28;20052;-81
2022/05/18 06:51:17;;;;;;;9.32;4.15;;;20.10;96.70;;;;;;5062762;28;20044;-82
2022/05/18 06:53:48;;;;;;;26.45;20.65;;;20.20;96.70;;;;;;5067373;28;21541;-81
2022/05/18 06:56:18;;;;;;;22.30;17.05;;;20.30;96.70;;;;;;5061628;28;20072;-81
2022/05/18 06:58:46;;;;;;;12.60;7.90;;;20.40;96.70;;;;;;5061050;28;20041;-80
2022/05/18 07:01:17;;;;;;;15.50;9.30;;;20.50;96.70;;;;;;5053372;28;20051;-80
2022/05/18 07:03:46;;;;;;;9.43;5.95;;;20.60;96.70;;;;;;5054378;28;20060;-81
2022/05/18 07:06:17;;;;;;;9.43;5.55;;;20.60;96.70;;;;;;5055361;28;20052;-81
2022/05/18 07:08:47;;;;;;;9.98;4.72;;;20.70;96.70;;;;;;5058048;28;20500;-81
2022/05/18 07:11:15;;;;;;;8.00;4.32;;;20.80;96.70;;;;;;5055804;28;20469;-80
2022/05/18 07:13:44;;;;;;;8.63;4.68;;;20.80;96.70;;;;;;5049252;28;20043;-81
2022/05/18 07:16:12;;;;;;;6.35;4.13;;;20.80;96.70;;;;;;5037157;28;20125;-80
2022/05/18 07:18:41;;;;;;;8.98;4.82;;;20.90;96.70;;;;;;5056673;28;20292;-80
2022/05/18 07:21:09;;;;;;;13.07;8.68;;;20.90;96.70;;;;;;5056787;28;20048;-79
2022/05/18 07:23:38;;;;;;;10.85;7.70;;;21.00;96.70;;;;;;5059342;28;20494;-79
2022/05/18 07:26:07;;;;;;;9.90;6.05;;;21.00;96.70;;;;;;5057230;28;20052;-79
2022/05/18 07:28:36;;;;;;;9.80;5.20;;;21.10;96.70;;;;;;5046395;28;20053;-77
2022/05/18 07:31:05;;;;;;;8.40;5.28;;;21.10;96.70;;;;;;5051504;28;20037;-77
2022/05/18 07:33:34;;;;;;;8.23;5.70;;;21.20;96.70;;;;;;5053007;28;20164;-77
2022/05/18 07:36:03;;;;;;;10.57;6.00;;;21.20;96.70;;;;;;5037512;28;20406;-77
2022/05/18 07:38:33;;;;;;;10.80;5.05;;;21.30;96.70;;;;;;5053197;28;20459;-76
2022/05/18 07:41:10;;;;;;;9.30;5.80;;;21.30;96.70;;;;;;5041051;28;20053;-76
2022/05/18 07:43:39;;;;;;;12.75;6.00;;;21.40;96.70;;;;;;5048184;28;20291;-78
2022/05/18 07:46:08;;;;;;;8.75;5.70;;;21.50;96.70;;;;;;5050919;28;20044;-79
2022/05/18 07:48:37;;;;;;;9.95;5.28;;;21.50;96.70;;;;;;5050563;28;20091;-78
2022/05/18 07:51:05;;;;;;;8.85;5.40;;;21.50;96.70;;;;;;5053657;28;20487;-80
2022/05/18 07:53:34;;;;;;;10.65;5.38;;;21.60;96.70;;;;;;5055079;28;20040;-80
2022/05/18 07:56:01;;;;;;;10.98;5.60;;;21.70;96.70;;;;;;5055099;28;20064;-80
2022/05/18 07:58:31;;;;;;;11.00;5.68;;;21.70;96.70;;;;;;5056855;28;20056;-80
2022/05/18 08:00:59;;;;;;;11.65;6.28;;;21.80;96.70;;;;;;5058803;28;20040;-79
2022/05/18 08:03:27;;;;;;;9.57;5.72;;;21.80;96.70;;;;;;5041802;28;20068;-80
2022/05/18 08:05:55;;;;;;;13.98;5.80;;;21.90;96.70;;;;;;5037199;28;20108;-80
2022/05/18 08:08:23;;;;;;;9.13;5.75;;;21.90;96.70;;;;;;5050969;28;20641;-79
2022/05/18 08:16:29;;;;;;;8.25;5.80;;;22.30;96.70;;;;;;5056909;28;20302;-79
2022/05/18 08:18:57;;;;;;;8.30;5.55;;;22.30;96.70;;;;;;5052257;28;20367;-79
2022/05/18 08:21:25;;;;;;;11.00;5.88;;;22.30;96.70;;;;;;5037422;28;20048;-79
2022/05/18 08:23:54;;;;;;;11.50;5.55;;;22.30;96.70;;;;;;5035154;28;20167;-80
2022/05/18 08:26:24;;;;;;;13.00;7.93;;;22.40;96.70;;;;;;5053304;28;20099;-82
2022/05/18 08:28:53;;;;;;;16.83;8.10;;;22.50;96.70;;;;;;5056576;28;20629;-81
2022/05/18 08:31:23;;;;;;;10.63;6.53;;;22.60;96.70;;;;;;5055188;28;20135;-80
2022/05/18 08:33:53;;;;;;;9.38;6.20;;;22.60;96.70;;;;;;5059849;28;20080;-81
2022/05/18 08:36:23;;;;;;;10.27;6.68;;;22.80;96.70;;;;;;5056035;28;20049;-81
2022/05/18 08:38:52;;;;;;;11.30;6.68;;;22.90;96.70;;;;;;5052534;28;20049;-81
2022/05/18 08:41:23;;;;;;;12.55;6.68;;;22.80;96.70;;;;;;5052440;28;20045;-81
2022/05/18 08:43:55;;;;;;;12.35;6.95;;;22.90;96.70;;;;;;5055397;28;20120;-81
2022/05/18 08:46:36;;;;;;;9.45;6.13;;;23.00;96.70;;;;;;5057433;28;20142;-81
2022/05/18 08:49:12;;;;;;;12.45;7.45;;;23.20;96.70;;;;;;5053091;28;20072;-78
2022/05/18 08:51:50;;;;;;;13.67;8.30;;;23.30;96.70;;;;;;5052805;28;20690;-81
2022/05/18 08:54:31;;;;;;;10.98;6.68;;;23.40;96.70;;;;;;5049026;28;20110;-81
2022/05/18 08:57:00;;;;;;;8.65;6.13;;;23.50;96.70;;;;;;5052226;28;20048;-82
2022/05/18 08:59:32;;;;;;;10.32;6.82;;;23.60;96.70;;;;;;5054959;28;20040;-80
2022/05/18 09:02:08;;;;;;;13.68;7.15;;;23.70;96.70;;;;;;5056774;28;20384;-82
2022/05/18 09:04:46;;;;;;;14.85;7.18;;;23.80;96.70;;;;;;5053302;28;20052;-80
2022/05/18 09:07:38;;;;;;;10.88;7.45;;;23.80;96.70;;;;;;5060606;28;20542;-81
2022/05/18 09:10:13;;;;;;;10.05;6.75;;;24.00;96.70;;;;;;5058731;28;20133;-81
2022/05/18 09:12:43;;;;;;;12.15;6.63;;;24.00;96.70;;;;;;5050373;28;20060;-80
2022/05/18 09:15:15;;;;;;;13.65;6.90;;;24.00;96.70;;;;;;5056945;28;20124;-78
2022/05/18 09:17:55;;;;;;;11.57;6.47;;;24.00;96.70;;;;;;5062416;28;20174;-82
2022/05/18 09:20:33;;;;;;;10.57;6.28;;;24.00;96.70;;;;;;5059724;28;20044;-82
2022/05/18 09:23:35;;;;;;;9.90;6.47;;;24.10;96.70;;;;;;5062689;28;20528;-81
2022/05/18 09:26:20;;;;;;;12.10;6.75;;;24.10;96.70;;;;;;5067936;28;20718;-81
2022/05/18 09:28:52;;;;;;;11.68;5.80;;;24.40;96.70;;;;;;5051138;28;20045;-81
2022/05/18 09:31:41;;;;;;;10.52;5.22;;;24.70;96.70;;;;;;5058924;28;20055;-82
2022/05/18 09:34:29;;;;;;;10.20;5.40;;;24.90;96.70;;;;;;5058539;28;20044;-79
2022/05/18 09:37:15;;;;;;;11.35;4.85;;;25.10;96.70;;;;;;5048277;28;20095;-80
2022/05/18 09:39:47;;;;;;;10.23;4.95;;;25.00;96.70;;;;;;5062455;28;20044;-83
2022/05/18 09:42:17;;;;;;;6.32;4.40;;;25.00;96.70;;;;;;5056576;28;20423;-80
2022/05/18 09:44:50;;;;;;;10.35;4.32;;;25.30;96.70;;;;;;5052120;28;20048;-80
2022/05/18 09:47:24;;;;;;;9.82;4.10;;;25.40;96.70;;;;;;5054699;28;20499;-81
2022/05/18 09:49:54;;;;;;;9.13;4.40;;;25.60;96.70;;;;;;5059612;28;20048;-81
2022/05/18 09:52:26;;;;;;;8.23;4.63;;;25.70;96.70;;;;;;5052283;28;20456;-78
2022/05/18 09:54:57;;;;;;;8.57;4.22;;;25.80;96.70;;;;;;5040000;28;20048;-78
2022/05/18 09:57:29;;;;;;;8.35;4.00;;;25.90;96.70;;;;;;5051853;28;20049;-79
2022/05/18 09:59:59;;;;;;;7.65;3.45;;;26.20;96.70;;;;;;5055044;28;20132;-78
2022/05/18 10:08:14;;;;;;;5.60;3.65;;;26.50;96.70;;;;;;5055988;28;20044;-78
2022/05/18 10:10:44;;;;;;;8.35;3.58;;;26.30;96.70;;;;;;5057215;28;20053;-78
2022/05/18 10:13:15;;;;;;;9.20;3.80;;;26.30;96.70;;;;;;5053265;28;20454;-78
2022/05/18 10:16:06;;;;;;;7.10;3.00;;;26.50;96.70;;;;;;5038352;28;20639;-77
2022/05/18 10:18:41;;;;;;;7.22;3.70;;;26.80;96.70;;;;;;5055496;28;20517;-80
2022/05/18 10:21:23;;;;;;;5.88;2.95;;;26.90;96.70;;;;;;5035624;28;20495;-79
2022/05/18 10:24:01;;;;;;;6.15;2.97;;;27.00;96.70;;;;;;5053139;28;20072;-80
2022/05/18 10:26:33;;;;;;;6.13;2.75;;;27.20;96.70;;;;;;5055872;28;20056;-78
2022/05/18 10:29:03;;;;;;;12.55;9.65;;;27.20;96.70;;;;;;5055720;28;20151;-79
2022/05/18 10:31:35;;;;;;;6.47;4.25;;;27.60;96.70;;;;;;5052317;28;20052;-78
2022/05/18 10:34:23;;;;;;;5.47;2.60;;;27.90;96.70;;;;;;5037739;28;20064;-78
2022/05/18 10:36:55;;;;;;;5.22;2.42;;;28.10;96.70;;;;;;5056498;28;20048;-78
2022/05/18 10:39:31;;;;;;;6.63;2.50;;;28.30;96.70;;;;;;5047400;28;20049;-78
2022/05/18 10:42:07;;;;;;;5.82;2.15;;;28.40;96.70;;;;;;5054584;28;20049;-74
2022/05/18 10:44:36;;;;;;;3.70;1.95;;;28.40;96.70;;;;;;5051091;28;20047;-75
2022/05/18 10:47:26;;;;;;;2.38;1.98;;;28.60;96.70;;;;;;5055654;28;20118;-75
2022/05/18 10:50:28;;;;;;;3.33;2.00;;;28.70;96.70;;;;;;5055052;28;20076;-75
2022/05/18 10:53:00;;;;;;;6.93;2.47;;;28.50;96.70;;;;;;5047520;28;20068;-75
2022/05/18 10:55:30;;;;;;;6.07;2.40;;;28.70;96.70;;;;;;5047041;28;20048;-75
2022/05/18 10:58:03;;;;;;;4.95;2.40;;;29.00;96.70;;;;;;5049577;28;20052;-74
2022/05/18 11:00:43;;;;;;;2.92;2.08;;;29.20;96.70;;;;;;5039728;28;20048;-76
2022/05/18 11:03:20;;;;;;;4.50;1.95;;;29.00;96.70;;;;;;5054384;28;20041;-76
2022/05/18 11:05:58;;;;;;;4.95;2.10;;;28.90;96.10;;;;;;5054830;28;20147;-75
2022/05/18 11:08:31;;;;;;;3.22;1.63;;;28.60;95.50;;;;;;5051907;28;20628;-75
2022/05/18 11:11:06;;;;;;;3.70;1.90;;;28.80;95.70;;;;;;5051502;28;20168;-75
2022/05/18 11:13:41;;;;;;;3.15;1.80;;;28.90;95.10;;;;;;5049269;28;20428;-73
2022/05/18 11:16:23;;;;;;;3.78;1.70;;;29.40;94.60;;;;;;5057128;28;20080;-73
2022/05/18 11:18:56;;;;;;;3.30;1.40;;;29.20;94.40;;;;;;5049237;28;20495;-74
2022/05/18 11:21:33;;;;;;;3.92;1.92;;;29.40;93.70;;;;;;5055659;28;20048;-73
2022/05/18 11:24:08;;;;;;;;;;;29.40;93.40;;;;;;5052780;28;20098;-73
2022/05/18 11:26:47;;;;;;;3.75;1.73;;;29.50;93.10;;;;;;5053034;28;19954;-73
2022/05/18 11:29:42;;;;;;;2.70;1.80;;;29.70;93.00;;;;;;5054025;28;20048;-74
2022/05/18 11:32:20;;;;;;;3.38;1.80;;;29.90;92.40;;;;;;5052405;28;20143;-72
2022/05/18 11:35:06;;;;;;;4.60;1.80;;;30.00;92.40;;;;;;5051045;28;20045;-72
2022/05/18 11:37:57;;;;;;;2.83;2.03;;;30.10;93.40;;;;;;5052705;28;20502;-73
2022/05/18 11:40:42;;;;;;;5.10;1.48;;;30.20;93.70;;;;;;5054918;28;20041;-73
2022/05/18 11:43:30;;;;;;;;;;;30.50;91.20;;;;;;5056257;28;20098;-73
2022/05/18 11:46:15;;;;;;;4.20;1.55;;;30.70;89.80;;;;;;5052632;28;19951;-73
2022/05/18 11:48:51;;;;;;;4.60;1.50;;;30.80;88.50;;;;;;5048281;28;20375;-73
2022/05/18 11:51:29;;;;;;;4.03;1.60;;;30.90;89.30;;;;;;5049936;28;20052;-73
2022/05/18 11:54:10;;;;;;;2.92;1.70;;;31.10;89.80;;;;;;5030892;28;20538;-73
2022/05/18 11:56:45;;;;;;;3.70;1.77;;;31.20;89.40;;;;;;5048538;28;20628;-73
2022/05/18 11:59:45;;;;;;;4.18;1.60;;;30.90;89.10;;;;;;5050792;28;20041;-73
2022/05/18 12:02:48;;;;;;;7.00;2.03;;;31.00;90.20;;;;;;5047353;28;20048;-73
2022/05/18 12:05:47;;;;;;;3.22;1.35;;;31.10;90.20;;;;;;5031908;28;20099;-73
2022/05/18 12:08:55;;;;;;;3.35;1.77;;;31.10;91.60;;;;;;5035618;28;20045;-73
2022/05/18 12:11:34;;;;;;;2.53;1.50;;;31.10;91.30;;;;;;5042812;28;20107;-73
2022/05/18 12:14:15;;;;;;;4.18;1.73;;;31.30;91.70;;;;;;5052973;28;20539;-74
2022/05/18 12:16:51;;;;;;;3.88;2.08;;;31.50;90.50;;;;;;5055822;28;20101;-74
2022/05/18 12:19:25;;;;;;;3.50;1.88;;;31.70;90.00;;;;;;5053040;28;20524;-73
2022/05/18 12:21:58;;;;;;;3.65;2.25;;;31.70;89.70;;;;;;5049052;28;20584;-73
2022/05/18 12:24:26;;;;;;;2.70;1.70;;;31.60;90.60;;;;;;5057500;28;20044;-73
2022/05/18 12:26:59;;;;;;;6.35;1.70;;;31.90;89.70;;;;;;5051883;28;20033;-73
2022/05/18 12:29:28;;;;;;;3.90;2.30;;;31.90;87.80;;;;;;5030508;28;20841;-73
2022/05/18 12:31:57;;;;;;;3.53;1.73;;;32.00;88.60;;;;;;5047709;28;20045;-73
2022/05/18 12:34:38;;;;;;;6.13;1.70;;;31.80;88.70;;;;;;5054445;28;20049;-73
2022/05/18 12:37:21;;;;;;;4.72;1.45;;;31.60;88.00;;;;;;5054611;28;20731;-74
2022/05/18 12:39:51;;;;;;;2.00;1.45;;;31.90;87.20;;;;;;5057773;28;20075;-73
2022/05/18 12:42:24;;;;;;;5.38;1.70;;;32.10;87.40;;;;;;5056491;28;20048;-73
2022/05/18 12:44:55;;;;;;;2.28;1.20;;;32.30;85.90;;;;;;5050872;28;20490;-72
2022/05/18 12:47:26;;;;;;;5.63;1.60;;;32.40;84.70;;;;;;5061392;28;20061;-73
2022/05/18 12:50:00;;;;;;;5.05;1.75;;;32.50;85.60;;;;;;5050569;28;20048;-73
2022/05/18 12:52:52;;;;;;;4.25;1.95;;;32.50;85.80;;;;;;5039341;28;20076;-73
2022/05/18 12:55:33;;;;;;;3.92;1.55;;;32.70;86.20;;;;;;5052502;28;20044;-74
2022/05/18 12:58:27;;;;;;;3.78;1.90;;;32.80;86.10;;;;;;5057323;28;20032;-73
2022/05/18 13:01:07;;;;;;;3.88;1.58;;;32.90;86.30;;;;;;5043680;28;20558;-74
2022/05/18 13:03:57;;;;;;;3.38;1.67;;;32.90;86.70;;;;;;5044937;28;20143;-73
2022/05/18 13:06:45;;;;;;;3.20;1.50;;;33.10;85.70;;;;;;5045741;28;20072;-74
2022/05/18 13:09:38;;;;;;;2.95;1.85;;;33.20;86.60;;;;;;5051032;28;20044;-75
2022/05/18 13:12:38;;;;;;;3.00;2.00;;;33.20;85.90;;;;;;5052559;28;20124;-74
2022/05/18 13:15:36;;;;;;;6.22;2.20;;;33.50;84.80;;;;;;5058973;28;20059;-74
2022/05/18 13:18:12;;;;;;;3.08;1.70;;;33.90;85.40;;;;;;5050144;28;20122;-73
2022/05/18 13:20:48;;;;;;;3.95;2.00;;;34.20;84.00;;;;;;5059388;28;20131;-74
2022/05/18 13:23:33;;;;;;;;;;;34.30;83.50;;;;;;5052301;28;20126;-73
2022/05/18 13:26:09;;;;;;;5.78;3.90;;;34.40;83.70;;;;;;5054175;28;19932;-74
2022/05/18 13:28:41;;;;;;;4.75;2.88;;;34.50;85.50;;;;;;5052917;28;20494;-73
2022/05/18 13:31:11;;;;;;;4.28;2.55;;;34.30;84.80;;;;;;5060099;28;20071;-73
2022/05/18 13:33:48;;;;;;;5.63;2.78;;;33.90;84.40;;;;;;5051487;28;20037;-73
2022/05/18 13:36:35;;;;;;;4.68;2.95;;;34.20;84.40;;;;;;5033181;28;20056;-73
2022/05/18 13:39:06;;;;;;;4.32;2.47;;;34.50;85.00;;;;;;5055562;28;20044;-73
2022/05/18 13:41:35;;;;;;;5.78;2.60;;;34.70;85.10;;;;;;5049271;28;20491;-73